sensor_id;sensor_type;location;lat;lon;timestamp;P1;durP1;ratioP1;P2;durP2;ratioP2
75526;SDS011;64107;49.248;7.006;2023-04-29T00:01:28;2.45;;;0.65;;
75526;SDS011;64107;49.248;7.006;2023-04-29T00:03:55;1.65;;;0.98;;
75526;SDS011;64107;49.248;7.006;2023-04-29T00:06:21;1.00;;;0.80;;
75526;SDS011;64107;49.248;7.006;2023-04-29T00:08:47;1.40;;;0.85;;
75526;SDS011;64107;49.248;7.006;2023-04-29T00:11:13;2.13;;;1.10;;
75526;SDS011;64107;49.248;7.006;2023-04-29T00:13:40;2.13;;;0.95;;
75526;SDS011;64107;49.248;7.006;2023-04-29T00:16:06;1.67;;;0.60;;
75526;SDS011;64107;49.248;7.006;2023-04-29T00:18:34;0.80;;;0.80;;
75526;SDS011;64107;49.248;7.006;2023-04-29T00:21:01;1.35;;;0.80;;
75526;SDS011;64107;49.248;7.006;2023-04-29T00:23:29;1.58;;;0.73;;
75526;SDS011;64107;49.248;7.006;2023-04-29T00:25:56;1.10;;;0.52;;
75526;SDS011;64107;49.248;7.006;2023-04-29T00:28:22;2.10;;;1.10;;
75526;SDS011;64107;49.248;7.006;2023-04-29T00:30:49;1.40;;;0.88;;
75526;SDS011;64107;49.248;7.006;2023-04-29T00:33:15;1.65;;;0.70;;
75526;SDS011;64107;49.248;7.006;2023-04-29T00:35:41;0.90;;;0.75;;
75526;SDS011;64107;49.248;7.006;2023-04-29T00:38:07;0.60;;;0.60;;
75526;SDS011;64107;49.248;7.006;2023-04-29T00:40:33;0.30;;;0.30;;
75526;SDS011;64107;49.248;7.006;2023-04-29T00:43:00;0.90;;;0.60;;
75526;SDS011;64107;49.248;7.006;2023-04-29T00:45:26;1.25;;;0.68;;
75526;SDS011;64107;49.248;7.006;2023-04-29T00:47:52;0.80;;;0.45;;
75526;SDS011;64107;49.248;7.006;2023-04-29T00:50:18;0.35;;;0.32;;
75526;SDS011;64107;49.248;7.006;2023-04-29T00:52:45;2.22;;;0.60;;
75526;SDS011;64107;49.248;7.006;2023-04-29T00:55:12;0.75;;;0.73;;
75526;SDS011;64107;49.248;7.006;2023-04-29T00:57:38;0.68;;;0.50;;
75526;SDS011;64107;49.248;7.006;2023-04-29T01:00:04;2.05;;;0.80;;
75526;SDS011;64107;49.248;7.006;2023-04-29T01:02:31;0.77;;;0.60;;
75526;SDS011;64107;49.248;7.006;2023-04-29T01:04:57;0.80;;;0.77;;
75526;SDS011;64107;49.248;7.006;2023-04-29T01:07:29;0.70;;;0.70;;
75526;SDS011;64107;49.248;7.006;2023-04-29T01:10:27;0.47;;;0.30;;
75526;SDS011;64107;49.248;7.006;2023-04-29T01:13:00;0.70;;;0.68;;
75526;SDS011;64107;49.248;7.006;2023-04-29T01:16:02;3.17;;;0.80;;
75526;SDS011;64107;49.248;7.006;2023-04-29T01:18:41;1.20;;;1.00;;
75526;SDS011;64107;49.248;7.006;2023-04-29T01:21:10;2.25;;;0.93;;
75526;SDS011;64107;49.248;7.006;2023-04-29T01:23:36;2.28;;;1.80;;
75526;SDS011;64107;49.248;7.006;2023-04-29T01:26:02;1.33;;;1.08;;
75526;SDS011;64107;49.248;7.006;2023-04-29T01:31:33;5.68;;;3.15;;
75526;SDS011;64107;49.248;7.006;2023-04-29T01:34:13;1.10;;;1.00;;
75526;SDS011;64107;49.248;7.006;2023-04-29T01:36:52;2.38;;;1.35;;
75526;SDS011;64107;49.248;7.006;2023-04-29T01:39:32;1.75;;;1.10;;
75526;SDS011;64107;49.248;7.006;2023-04-29T01:45:01;3.70;;;1.20;;
75526;SDS011;64107;49.248;7.006;2023-04-29T01:47:30;6.20;;;1.60;;
75526;SDS011;64107;49.248;7.006;2023-04-29T01:49:57;3.10;;;1.42;;
75526;SDS011;64107;49.248;7.006;2023-04-29T01:52:24;1.58;;;1.30;;
75526;SDS011;64107;49.248;7.006;2023-04-29T01:54:52;3.22;;;1.20;;
75526;SDS011;64107;49.248;7.006;2023-04-29T01:57:18;1.77;;;1.33;;
75526;SDS011;64107;49.248;7.006;2023-04-29T01:59:44;1.73;;;1.10;;
75526;SDS011;64107;49.248;7.006;2023-04-29T02:02:10;2.75;;;1.23;;
75526;SDS011;64107;49.248;7.006;2023-04-29T02:04:39;4.85;;;1.33;;
75526;SDS011;64107;49.248;7.006;2023-04-29T02:07:05;7.88;;;2.15;;
75526;SDS011;64107;49.248;7.006;2023-04-29T02:09:31;1.77;;;1.25;;
75526;SDS011;64107;49.248;7.006;2023-04-29T02:11:57;1.90;;;1.30;;
75526;SDS011;64107;49.248;7.006;2023-04-29T02:14:23;2.17;;;1.55;;
75526;SDS011;64107;49.248;7.006;2023-04-29T02:16:49;2.42;;;1.50;;
75526;SDS011;64107;49.248;7.006;2023-04-29T02:19:15;8.00;;;1.52;;
75526;SDS011;64107;49.248;7.006;2023-04-29T02:21:41;6.35;;;3.50;;
75526;SDS011;64107;49.248;7.006;2023-04-29T02:24:08;5.35;;;2.53;;
75526;SDS011;64107;49.248;7.006;2023-04-29T02:26:34;3.03;;;1.70;;
75526;SDS011;64107;49.248;7.006;2023-04-29T02:29:02;2.97;;;1.35;;
75526;SDS011;64107;49.248;7.006;2023-04-29T02:31:28;3.42;;;1.67;;
75526;SDS011;64107;49.248;7.006;2023-04-29T02:33:54;1.83;;;1.40;;
75526;SDS011;64107;49.248;7.006;2023-04-29T02:36:20;2.03;;;1.33;;
75526;SDS011;64107;49.248;7.006;2023-04-29T02:38:46;5.35;;;2.40;;
75526;SDS011;64107;49.248;7.006;2023-04-29T02:41:15;2.08;;;1.38;;
75526;SDS011;64107;49.248;7.006;2023-04-29T02:43:42;1.60;;;1.40;;
75526;SDS011;64107;49.248;7.006;2023-04-29T02:46:08;1.70;;;1.20;;
75526;SDS011;64107;49.248;7.006;2023-04-29T02:48:35;9.25;;;6.35;;
75526;SDS011;64107;49.248;7.006;2023-04-29T02:51:01;2.83;;;1.55;;
75526;SDS011;64107;49.248;7.006;2023-04-29T02:53:27;3.28;;;2.47;;
75526;SDS011;64107;49.248;7.006;2023-04-29T02:55:53;4.00;;;2.00;;
75526;SDS011;64107;49.248;7.006;2023-04-29T02:58:19;2.80;;;1.85;;
75526;SDS011;64107;49.248;7.006;2023-04-29T03:00:46;2.90;;;2.30;;
75526;SDS011;64107;49.248;7.006;2023-04-29T03:03:12;2.58;;;1.60;;
75526;SDS011;64107;49.248;7.006;2023-04-29T03:05:38;3.50;;;1.85;;
75526;SDS011;64107;49.248;7.006;2023-04-29T03:08:04;3.15;;;1.50;;
75526;SDS011;64107;49.248;7.006;2023-04-29T03:10:31;3.97;;;2.55;;
75526;SDS011;64107;49.248;7.006;2023-04-29T03:12:57;2.58;;;1.40;;
75526;SDS011;64107;49.248;7.006;2023-04-29T03:15:23;4.75;;;1.70;;
75526;SDS011;64107;49.248;7.006;2023-04-29T03:17:50;2.65;;;2.00;;
75526;SDS011;64107;49.248;7.006;2023-04-29T03:20:16;2.05;;;1.80;;
75526;SDS011;64107;49.248;7.006;2023-04-29T03:22:42;2.95;;;1.85;;
75526;SDS011;64107;49.248;7.006;2023-04-29T03:25:08;3.08;;;1.73;;
75526;SDS011;64107;49.248;7.006;2023-04-29T03:27:34;3.80;;;1.88;;
75526;SDS011;64107;49.248;7.006;2023-04-29T03:30:01;4.07;;;2.33;;
75526;SDS011;64107;49.248;7.006;2023-04-29T03:32:27;3.10;;;1.85;;
75526;SDS011;64107;49.248;7.006;2023-04-29T03:34:53;4.70;;;2.95;;
75526;SDS011;64107;49.248;7.006;2023-04-29T03:37:19;3.17;;;1.75;;
75526;SDS011;64107;49.248;7.006;2023-04-29T03:39:45;2.10;;;1.50;;
75526;SDS011;64107;49.248;7.006;2023-04-29T03:42:11;2.47;;;1.35;;
75526;SDS011;64107;49.248;7.006;2023-04-29T03:44:38;1.92;;;1.33;;
75526;SDS011;64107;49.248;7.006;2023-04-29T03:47:04;2.80;;;1.85;;
75526;SDS011;64107;49.248;7.006;2023-04-29T03:49:30;3.38;;;1.73;;
75526;SDS011;64107;49.248;7.006;2023-04-29T03:51:56;3.78;;;1.95;;
75526;SDS011;64107;49.248;7.006;2023-04-29T03:54:23;4.13;;;1.80;;
75526;SDS011;64107;49.248;7.006;2023-04-29T03:56:49;3.10;;;2.03;;
75526;SDS011;64107;49.248;7.006;2023-04-29T03:59:15;3.72;;;2.50;;
75526;SDS011;64107;49.248;7.006;2023-04-29T04:01:41;5.20;;;2.25;;
75526;SDS011;64107;49.248;7.006;2023-04-29T04:04:07;5.57;;;2.78;;
75526;SDS011;64107;49.248;7.006;2023-04-29T04:06:33;4.85;;;2.63;;
75526;SDS011;64107;49.248;7.006;2023-04-29T04:08:59;5.03;;;2.78;;
75526;SDS011;64107;49.248;7.006;2023-04-29T04:11:25;6.10;;;3.35;;
75526;SDS011;64107;49.248;7.006;2023-04-29T04:13:52;4.85;;;3.10;;
75526;SDS011;64107;49.248;7.006;2023-04-29T04:16:18;5.45;;;2.92;;
75526;SDS011;64107;49.248;7.006;2023-04-29T04:18:44;4.47;;;2.55;;
75526;SDS011;64107;49.248;7.006;2023-04-29T04:21:11;7.45;;;3.13;;
75526;SDS011;64107;49.248;7.006;2023-04-29T04:23:37;4.78;;;3.00;;
75526;SDS011;64107;49.248;7.006;2023-04-29T04:26:05;6.20;;;2.78;;
75526;SDS011;64107;49.248;7.006;2023-04-29T04:28:31;6.28;;;2.30;;
75526;SDS011;64107;49.248;7.006;2023-04-29T04:30:57;4.68;;;2.22;;
75526;SDS011;64107;49.248;7.006;2023-04-29T04:33:23;2.88;;;2.20;;
75526;SDS011;64107;49.248;7.006;2023-04-29T04:35:50;3.17;;;2.38;;
75526;SDS011;64107;49.248;7.006;2023-04-29T04:38:16;5.53;;;2.58;;
75526;SDS011;64107;49.248;7.006;2023-04-29T04:40:42;5.93;;;2.70;;
75526;SDS011;64107;49.248;7.006;2023-04-29T04:43:09;5.20;;;2.90;;
75526;SDS011;64107;49.248;7.006;2023-04-29T04:45:35;6.10;;;2.95;;
75526;SDS011;64107;49.248;7.006;2023-04-29T04:48:01;5.65;;;3.35;;
75526;SDS011;64107;49.248;7.006;2023-04-29T04:50:27;8.30;;;3.67;;
75526;SDS011;64107;49.248;7.006;2023-04-29T04:52:54;5.55;;;3.17;;
75526;SDS011;64107;49.248;7.006;2023-04-29T04:55:21;6.97;;;4.05;;
75526;SDS011;64107;49.248;7.006;2023-04-29T04:57:47;5.35;;;3.15;;
75526;SDS011;64107;49.248;7.006;2023-04-29T05:00:13;5.68;;;3.47;;
75526;SDS011;64107;49.248;7.006;2023-04-29T05:02:39;4.75;;;2.70;;
75526;SDS011;64107;49.248;7.006;2023-04-29T05:05:06;6.28;;;2.63;;
75526;SDS011;64107;49.248;7.006;2023-04-29T05:07:32;6.18;;;2.63;;
75526;SDS011;64107;49.248;7.006;2023-04-29T05:10:01;5.35;;;3.00;;
75526;SDS011;64107;49.248;7.006;2023-04-29T05:12:28;4.65;;;3.13;;
75526;SDS011;64107;49.248;7.006;2023-04-29T05:14:57;5.53;;;3.38;;
75526;SDS011;64107;49.248;7.006;2023-04-29T05:17:24;7.43;;;3.65;;
75526;SDS011;64107;49.248;7.006;2023-04-29T05:19:50;5.20;;;3.17;;
75526;SDS011;64107;49.248;7.006;2023-04-29T05:22:16;4.85;;;2.92;;
75526;SDS011;64107;49.248;7.006;2023-04-29T05:24:42;7.60;;;3.55;;
75526;SDS011;64107;49.248;7.006;2023-04-29T05:27:08;4.70;;;2.92;;
75526;SDS011;64107;49.248;7.006;2023-04-29T05:29:34;5.30;;;2.88;;
75526;SDS011;64107;49.248;7.006;2023-04-29T05:32:00;5.15;;;3.28;;
75526;SDS011;64107;49.248;7.006;2023-04-29T05:34:26;9.18;;;3.92;;
75526;SDS011;64107;49.248;7.006;2023-04-29T05:36:52;7.00;;;2.55;;
75526;SDS011;64107;49.248;7.006;2023-04-29T05:39:18;5.95;;;3.30;;
75526;SDS011;64107;49.248;7.006;2023-04-29T05:41:44;5.90;;;2.88;;
75526;SDS011;64107;49.248;7.006;2023-04-29T05:44:11;6.50;;;3.80;;
75526;SDS011;64107;49.248;7.006;2023-04-29T05:46:37;7.13;;;3.38;;
75526;SDS011;64107;49.248;7.006;2023-04-29T05:49:03;5.63;;;3.28;;
75526;SDS011;64107;49.248;7.006;2023-04-29T05:51:29;7.40;;;3.83;;
75526;SDS011;64107;49.248;7.006;2023-04-29T05:53:56;4.57;;;2.83;;
75526;SDS011;64107;49.248;7.006;2023-04-29T05:56:24;4.90;;;2.88;;
75526;SDS011;64107;49.248;7.006;2023-04-29T05:58:50;5.22;;;3.35;;
75526;SDS011;64107;49.248;7.006;2023-04-29T06:01:16;5.18;;;3.05;;
75526;SDS011;64107;49.248;7.006;2023-04-29T06:03:42;3.55;;;2.22;;
75526;SDS011;64107;49.248;7.006;2023-04-29T06:06:08;5.15;;;3.40;;
75526;SDS011;64107;49.248;7.006;2023-04-29T06:08:35;6.57;;;3.38;;
75526;SDS011;64107;49.248;7.006;2023-04-29T06:11:01;4.68;;;2.88;;
75526;SDS011;64107;49.248;7.006;2023-04-29T06:13:29;3.38;;;2.00;;
75526;SDS011;64107;49.248;7.006;2023-04-29T06:15:58;5.60;;;3.00;;
75526;SDS011;64107;49.248;7.006;2023-04-29T06:18:24;2.38;;;1.73;;
75526;SDS011;64107;49.248;7.006;2023-04-29T06:20:50;6.85;;;3.70;;
75526;SDS011;64107;49.248;7.006;2023-04-29T06:23:16;6.28;;;4.00;;
75526;SDS011;64107;49.248;7.006;2023-04-29T06:25:42;6.43;;;3.47;;
75526;SDS011;64107;49.248;7.006;2023-04-29T06:28:08;5.85;;;3.50;;
75526;SDS011;64107;49.248;7.006;2023-04-29T06:30:34;4.53;;;3.17;;
75526;SDS011;64107;49.248;7.006;2023-04-29T06:33:00;4.75;;;2.53;;
75526;SDS011;64107;49.248;7.006;2023-04-29T06:35:26;5.07;;;2.20;;
75526;SDS011;64107;49.248;7.006;2023-04-29T06:37:52;5.00;;;2.90;;
75526;SDS011;64107;49.248;7.006;2023-04-29T06:40:20;7.65;;;3.97;;
75526;SDS011;64107;49.248;7.006;2023-04-29T06:42:46;5.68;;;3.33;;
75526;SDS011;64107;49.248;7.006;2023-04-29T06:45:12;4.30;;;2.67;;
75526;SDS011;64107;49.248;7.006;2023-04-29T06:47:38;3.55;;;2.33;;
75526;SDS011;64107;49.248;7.006;2023-04-29T06:50:04;5.22;;;3.42;;
75526;SDS011;64107;49.248;7.006;2023-04-29T06:52:31;3.88;;;2.88;;
75526;SDS011;64107;49.248;7.006;2023-04-29T06:54:57;5.97;;;3.00;;
75526;SDS011;64107;49.248;7.006;2023-04-29T06:57:23;8.43;;;3.60;;
75526;SDS011;64107;49.248;7.006;2023-04-29T06:59:50;6.13;;;3.15;;
75526;SDS011;64107;49.248;7.006;2023-04-29T07:02:16;7.15;;;3.10;;
75526;SDS011;64107;49.248;7.006;2023-04-29T07:04:42;10.38;;;3.35;;
75526;SDS011;64107;49.248;7.006;2023-04-29T07:07:08;6.47;;;3.05;;
75526;SDS011;64107;49.248;7.006;2023-04-29T07:09:34;3.92;;;2.40;;
75526;SDS011;64107;49.248;7.006;2023-04-29T07:12:00;3.83;;;1.92;;
75526;SDS011;64107;49.248;7.006;2023-04-29T07:14:28;3.47;;;2.30;;
75526;SDS011;64107;49.248;7.006;2023-04-29T07:16:54;2.85;;;2.13;;
75526;SDS011;64107;49.248;7.006;2023-04-29T07:19:21;8.27;;;4.05;;
75526;SDS011;64107;49.248;7.006;2023-04-29T07:21:47;5.25;;;3.17;;
75526;SDS011;64107;49.248;7.006;2023-04-29T07:24:13;3.83;;;2.72;;
75526;SDS011;64107;49.248;7.006;2023-04-29T07:26:41;4.20;;;2.42;;
75526;SDS011;64107;49.248;7.006;2023-04-29T07:29:08;5.63;;;3.72;;
75526;SDS011;64107;49.248;7.006;2023-04-29T07:31:35;5.63;;;3.60;;
75526;SDS011;64107;49.248;7.006;2023-04-29T07:34:01;4.78;;;2.70;;
75526;SDS011;64107;49.248;7.006;2023-04-29T07:36:27;8.07;;;4.40;;
75526;SDS011;64107;49.248;7.006;2023-04-29T07:38:54;7.03;;;3.55;;
75526;SDS011;64107;49.248;7.006;2023-04-29T07:41:20;3.50;;;2.33;;
75526;SDS011;64107;49.248;7.006;2023-04-29T07:43:46;8.23;;;4.57;;
75526;SDS011;64107;49.248;7.006;2023-04-29T07:46:12;6.68;;;4.20;;
75526;SDS011;64107;49.248;7.006;2023-04-29T07:48:38;5.75;;;3.45;;
75526;SDS011;64107;49.248;7.006;2023-04-29T07:51:05;3.40;;;2.28;;
75526;SDS011;64107;49.248;7.006;2023-04-29T07:53:36;6.82;;;3.38;;
75526;SDS011;64107;49.248;7.006;2023-04-29T07:56:05;8.48;;;4.22;;
75526;SDS011;64107;49.248;7.006;2023-04-29T07:58:32;5.97;;;2.85;;
75526;SDS011;64107;49.248;7.006;2023-04-29T08:01:08;6.47;;;3.78;;
75526;SDS011;64107;49.248;7.006;2023-04-29T08:03:35;8.75;;;4.13;;
75526;SDS011;64107;49.248;7.006;2023-04-29T08:06:05;8.65;;;4.07;;
75526;SDS011;64107;49.248;7.006;2023-04-29T08:08:31;8.90;;;4.45;;
75526;SDS011;64107;49.248;7.006;2023-04-29T08:10:57;7.60;;;4.10;;
75526;SDS011;64107;49.248;7.006;2023-04-29T08:13:23;5.78;;;3.58;;
75526;SDS011;64107;49.248;7.006;2023-04-29T08:15:50;7.30;;;4.25;;
75526;SDS011;64107;49.248;7.006;2023-04-29T08:18:16;8.00;;;3.97;;
75526;SDS011;64107;49.248;7.006;2023-04-29T08:20:42;4.43;;;2.65;;
75526;SDS011;64107;49.248;7.006;2023-04-29T08:23:08;8.60;;;4.55;;
75526;SDS011;64107;49.248;7.006;2023-04-29T08:25:35;6.82;;;3.05;;
75526;SDS011;64107;49.248;7.006;2023-04-29T08:28:04;6.72;;;3.97;;
75526;SDS011;64107;49.248;7.006;2023-04-29T08:30:31;5.70;;;3.25;;
75526;SDS011;64107;49.248;7.006;2023-04-29T08:32:57;9.75;;;5.78;;
75526;SDS011;64107;49.248;7.006;2023-04-29T08:35:23;6.18;;;4.35;;
75526;SDS011;64107;49.248;7.006;2023-04-29T08:37:51;8.05;;;4.70;;
75526;SDS011;64107;49.248;7.006;2023-04-29T08:40:18;6.72;;;3.90;;
75526;SDS011;64107;49.248;7.006;2023-04-29T08:42:44;2.90;;;2.15;;
75526;SDS011;64107;49.248;7.006;2023-04-29T08:45:10;5.57;;;2.90;;
75526;SDS011;64107;49.248;7.006;2023-04-29T08:47:38;8.07;;;4.47;;
75526;SDS011;64107;49.248;7.006;2023-04-29T08:50:04;9.45;;;5.10;;
75526;SDS011;64107;49.248;7.006;2023-04-29T08:52:31;8.57;;;2.83;;
75526;SDS011;64107;49.248;7.006;2023-04-29T08:54:58;7.85;;;3.95;;
75526;SDS011;64107;49.248;7.006;2023-04-29T08:57:26;5.28;;;3.50;;
75526;SDS011;64107;49.248;7.006;2023-04-29T08:59:54;10.43;;;4.57;;
75526;SDS011;64107;49.248;7.006;2023-04-29T09:02:20;8.43;;;4.57;;
75526;SDS011;64107;49.248;7.006;2023-04-29T09:04:52;7.00;;;4.07;;
75526;SDS011;64107;49.248;7.006;2023-04-29T09:07:24;8.20;;;4.38;;
75526;SDS011;64107;49.248;7.006;2023-04-29T09:09:52;7.38;;;2.63;;
75526;SDS011;64107;49.248;7.006;2023-04-29T09:12:19;9.48;;;4.97;;
75526;SDS011;64107;49.248;7.006;2023-04-29T09:14:45;7.85;;;4.35;;
75526;SDS011;64107;49.248;7.006;2023-04-29T09:17:11;9.40;;;4.65;;
75526;SDS011;64107;49.248;7.006;2023-04-29T09:19:40;8.93;;;4.18;;
75526;SDS011;64107;49.248;7.006;2023-04-29T09:22:06;8.98;;;4.35;;
75526;SDS011;64107;49.248;7.006;2023-04-29T09:24:33;7.88;;;4.32;;
75526;SDS011;64107;49.248;7.006;2023-04-29T09:26:59;8.00;;;3.85;;
75526;SDS011;64107;49.248;7.006;2023-04-29T09:29:27;7.55;;;4.72;;
75526;SDS011;64107;49.248;7.006;2023-04-29T09:31:54;9.32;;;4.35;;
75526;SDS011;64107;49.248;7.006;2023-04-29T09:34:32;9.32;;;4.35;;
75526;SDS011;64107;49.248;7.006;2023-04-29T09:37:06;11.40;;;5.65;;
75526;SDS011;64107;49.248;7.006;2023-04-29T09:39:48;10.07;;;5.43;;
75526;SDS011;64107;49.248;7.006;2023-04-29T09:42:14;8.57;;;5.30;;
75526;SDS011;64107;49.248;7.006;2023-04-29T09:44:40;9.23;;;4.53;;
75526;SDS011;64107;49.248;7.006;2023-04-29T09:47:10;9.77;;;5.43;;
75526;SDS011;64107;49.248;7.006;2023-04-29T09:49:41;10.57;;;5.53;;
75526;SDS011;64107;49.248;7.006;2023-04-29T09:52:13;10.80;;;6.60;;
75526;SDS011;64107;49.248;7.006;2023-04-29T09:54:41;10.32;;;5.60;;
75526;SDS011;64107;49.248;7.006;2023-04-29T09:57:08;9.38;;;5.10;;
75526;SDS011;64107;49.248;7.006;2023-04-29T09:59:35;10.50;;;5.40;;
75526;SDS011;64107;49.248;7.006;2023-04-29T10:02:10;9.40;;;4.72;;
75526;SDS011;64107;49.248;7.006;2023-04-29T10:04:47;11.98;;;6.22;;
75526;SDS011;64107;49.248;7.006;2023-04-29T10:07:23;10.02;;;5.45;;
75526;SDS011;64107;49.248;7.006;2023-04-29T10:09:50;7.95;;;5.18;;
75526;SDS011;64107;49.248;7.006;2023-04-29T10:12:17;9.73;;;4.80;;
75526;SDS011;64107;49.248;7.006;2023-04-29T10:14:56;9.77;;;5.20;;
75526;SDS011;64107;49.248;7.006;2023-04-29T10:17:45;12.13;;;4.97;;
75526;SDS011;64107;49.248;7.006;2023-04-29T10:20:23;12.13;;;6.00;;
75526;SDS011;64107;49.248;7.006;2023-04-29T10:22:51;11.27;;;4.88;;
75526;SDS011;64107;49.248;7.006;2023-04-29T10:25:23;9.90;;;5.07;;
75526;SDS011;64107;49.248;7.006;2023-04-29T10:27:51;9.63;;;5.10;;
75526;SDS011;64107;49.248;7.006;2023-04-29T10:30:19;10.77;;;5.60;;
75526;SDS011;64107;49.248;7.006;2023-04-29T10:32:46;9.02;;;4.95;;
75526;SDS011;64107;49.248;7.006;2023-04-29T10:35:15;7.80;;;4.63;;
75526;SDS011;64107;49.248;7.006;2023-04-29T10:37:44;7.70;;;4.68;;
75526;SDS011;64107;49.248;7.006;2023-04-29T10:42:49;8.88;;;4.55;;
75526;SDS011;64107;49.248;7.006;2023-04-29T10:53:11;9.07;;;4.03;;
75526;SDS011;64107;49.248;7.006;2023-04-29T10:55:41;5.90;;;3.75;;
75526;SDS011;64107;49.248;7.006;2023-04-29T11:00:58;7.15;;;3.85;;
75526;SDS011;64107;49.248;7.006;2023-04-29T11:06:10;7.05;;;3.40;;
75526;SDS011;64107;49.248;7.006;2023-04-29T11:08:36;6.13;;;3.25;;
75526;SDS011;64107;49.248;7.006;2023-04-29T11:11:06;4.40;;;2.58;;
75526;SDS011;64107;49.248;7.006;2023-04-29T11:13:32;7.13;;;2.97;;
75526;SDS011;64107;49.248;7.006;2023-04-29T11:16:10;6.43;;;3.30;;
75526;SDS011;64107;49.248;7.006;2023-04-29T11:19:02;4.85;;;3.28;;
75526;SDS011;64107;49.248;7.006;2023-04-29T11:21:28;6.00;;;3.67;;
75526;SDS011;64107;49.248;7.006;2023-04-29T11:23:56;5.53;;;2.88;;
75526;SDS011;64107;49.248;7.006;2023-04-29T11:26:22;4.00;;;2.78;;
75526;SDS011;64107;49.248;7.006;2023-04-29T11:28:50;4.90;;;3.45;;
75526;SDS011;64107;49.248;7.006;2023-04-29T11:31:16;7.00;;;2.58;;
75526;SDS011;64107;49.248;7.006;2023-04-29T11:33:42;5.82;;;3.17;;
75526;SDS011;64107;49.248;7.006;2023-04-29T11:36:08;5.10;;;3.28;;
75526;SDS011;64107;49.248;7.006;2023-04-29T11:38:37;5.93;;;3.92;;
75526;SDS011;64107;49.248;7.006;2023-04-29T11:41:05;5.75;;;3.45;;
75526;SDS011;64107;49.248;7.006;2023-04-29T11:43:31;5.68;;;2.95;;
75526;SDS011;64107;49.248;7.006;2023-04-29T11:45:57;5.85;;;3.70;;
75526;SDS011;64107;49.248;7.006;2023-04-29T11:48:24;3.65;;;2.85;;
75526;SDS011;64107;49.248;7.006;2023-04-29T11:50:51;4.93;;;2.72;;
75526;SDS011;64107;49.248;7.006;2023-04-29T11:53:23;5.88;;;3.17;;
75526;SDS011;64107;49.248;7.006;2023-04-29T11:55:54;5.03;;;3.00;;
75526;SDS011;64107;49.248;7.006;2023-04-29T11:58:20;3.85;;;2.50;;
75526;SDS011;64107;49.248;7.006;2023-04-29T12:00:47;6.22;;;3.40;;
75526;SDS011;64107;49.248;7.006;2023-04-29T12:03:14;5.38;;;2.72;;
75526;SDS011;64107;49.248;7.006;2023-04-29T12:05:50;4.45;;;2.95;;
75526;SDS011;64107;49.248;7.006;2023-04-29T12:08:23;4.95;;;2.53;;
75526;SDS011;64107;49.248;7.006;2023-04-29T12:10:50;4.82;;;2.97;;
75526;SDS011;64107;49.248;7.006;2023-04-29T12:13:18;6.38;;;3.50;;
75526;SDS011;64107;49.248;7.006;2023-04-29T12:15:45;4.32;;;2.53;;
75526;SDS011;64107;49.248;7.006;2023-04-29T12:18:13;4.20;;;2.78;;
75526;SDS011;64107;49.248;7.006;2023-04-29T12:20:39;3.55;;;2.75;;
75526;SDS011;64107;49.248;7.006;2023-04-29T12:23:16;5.40;;;3.00;;
75526;SDS011;64107;49.248;7.006;2023-04-29T12:25:50;3.63;;;2.53;;
75526;SDS011;64107;49.248;7.006;2023-04-29T12:28:17;4.68;;;2.53;;
75526;SDS011;64107;49.248;7.006;2023-04-29T12:30:44;5.85;;;3.03;;
75526;SDS011;64107;49.248;7.006;2023-04-29T12:33:14;5.55;;;3.13;;
75526;SDS011;64107;49.248;7.006;2023-04-29T12:35:45;6.60;;;3.20;;
75526;SDS011;64107;49.248;7.006;2023-04-29T12:40:48;4.85;;;3.00;;
75526;SDS011;64107;49.248;7.006;2023-04-29T12:43:15;4.07;;;3.10;;
75526;SDS011;64107;49.248;7.006;2023-04-29T12:45:41;6.05;;;3.38;;
75526;SDS011;64107;49.248;7.006;2023-04-29T12:48:07;5.53;;;2.60;;
75526;SDS011;64107;49.248;7.006;2023-04-29T12:50:34;5.45;;;3.35;;
75526;SDS011;64107;49.248;7.006;2023-04-29T12:53:02;3.35;;;2.42;;
75526;SDS011;64107;49.248;7.006;2023-04-29T12:55:30;3.80;;;2.65;;
75526;SDS011;64107;49.248;7.006;2023-04-29T12:58:00;4.97;;;2.60;;
75526;SDS011;64107;49.248;7.006;2023-04-29T13:00:27;7.03;;;3.30;;
75526;SDS011;64107;49.248;7.006;2023-04-29T13:02:53;3.70;;;2.38;;
75526;SDS011;64107;49.248;7.006;2023-04-29T13:05:19;4.60;;;1.92;;
75526;SDS011;64107;49.248;7.006;2023-04-29T13:07:46;4.97;;;2.60;;
75526;SDS011;64107;49.248;7.006;2023-04-29T13:10:12;6.03;;;2.80;;
75526;SDS011;64107;49.248;7.006;2023-04-29T13:12:39;2.85;;;2.15;;
75526;SDS011;64107;49.248;7.006;2023-04-29T13:15:05;3.45;;;2.20;;
75526;SDS011;64107;49.248;7.006;2023-04-29T13:17:35;2.97;;;1.98;;
75526;SDS011;64107;49.248;7.006;2023-04-29T13:20:02;2.13;;;1.30;;
75526;SDS011;64107;49.248;7.006;2023-04-29T13:22:29;2.75;;;2.10;;
75526;SDS011;64107;49.248;7.006;2023-04-29T13:24:55;2.60;;;1.83;;
75526;SDS011;64107;49.248;7.006;2023-04-29T13:27:21;3.97;;;2.30;;
75526;SDS011;64107;49.248;7.006;2023-04-29T13:29:47;3.88;;;1.95;;
75526;SDS011;64107;49.248;7.006;2023-04-29T13:32:13;3.78;;;1.90;;
75526;SDS011;64107;49.248;7.006;2023-04-29T13:34:40;1.85;;;1.63;;
75526;SDS011;64107;49.248;7.006;2023-04-29T13:37:07;2.50;;;1.77;;
75526;SDS011;64107;49.248;7.006;2023-04-29T13:39:34;2.47;;;1.77;;
75526;SDS011;64107;49.248;7.006;2023-04-29T13:42:00;2.20;;;1.77;;
75526;SDS011;64107;49.248;7.006;2023-04-29T13:44:27;2.92;;;2.10;;
75526;SDS011;64107;49.248;7.006;2023-04-29T13:46:54;2.42;;;2.22;;
75526;SDS011;64107;49.248;7.006;2023-04-29T13:49:20;4.80;;;2.30;;
75526;SDS011;64107;49.248;7.006;2023-04-29T13:51:46;9.15;;;2.28;;
75526;SDS011;64107;49.248;7.006;2023-04-29T13:54:12;2.97;;;1.83;;
75526;SDS011;64107;49.248;7.006;2023-04-29T13:56:38;3.42;;;2.25;;
75526;SDS011;64107;49.248;7.006;2023-04-29T13:59:05;3.03;;;2.05;;
75526;SDS011;64107;49.248;7.006;2023-04-29T14:01:31;2.72;;;1.83;;
75526;SDS011;64107;49.248;7.006;2023-04-29T14:03:57;3.38;;;1.90;;
75526;SDS011;64107;49.248;7.006;2023-04-29T14:06:23;2.03;;;1.77;;
75526;SDS011;64107;49.248;7.006;2023-04-29T14:08:49;3.40;;;1.90;;
75526;SDS011;64107;49.248;7.006;2023-04-29T14:11:16;3.95;;;2.42;;
75526;SDS011;64107;49.248;7.006;2023-04-29T14:13:43;2.08;;;1.70;;
75526;SDS011;64107;49.248;7.006;2023-04-29T14:16:09;4.68;;;2.03;;
75526;SDS011;64107;49.248;7.006;2023-04-29T14:18:35;2.00;;;1.67;;
75526;SDS011;64107;49.248;7.006;2023-04-29T14:21:02;2.42;;;1.88;;
75526;SDS011;64107;49.248;7.006;2023-04-29T14:23:28;2.53;;;1.90;;
75526;SDS011;64107;49.248;7.006;2023-04-29T14:25:54;2.42;;;1.90;;
75526;SDS011;64107;49.248;7.006;2023-04-29T14:28:20;4.43;;;2.10;;
75526;SDS011;64107;49.248;7.006;2023-04-29T14:30:46;3.03;;;1.80;;
75526;SDS011;64107;49.248;7.006;2023-04-29T14:33:13;3.65;;;2.05;;
75526;SDS011;64107;49.248;7.006;2023-04-29T14:35:39;3.30;;;1.98;;
75526;SDS011;64107;49.248;7.006;2023-04-29T14:38:05;2.90;;;1.98;;
75526;SDS011;64107;49.248;7.006;2023-04-29T14:40:31;3.80;;;2.45;;
75526;SDS011;64107;49.248;7.006;2023-04-29T14:42:57;3.03;;;2.03;;
75526;SDS011;64107;49.248;7.006;2023-04-29T14:45:23;2.28;;;1.58;;
75526;SDS011;64107;49.248;7.006;2023-04-29T14:47:49;2.20;;;1.88;;
75526;SDS011;64107;49.248;7.006;2023-04-29T14:50:15;4.47;;;2.38;;
75526;SDS011;64107;49.248;7.006;2023-04-29T14:52:42;4.47;;;2.58;;
75526;SDS011;64107;49.248;7.006;2023-04-29T14:55:08;3.40;;;1.80;;
75526;SDS011;64107;49.248;7.006;2023-04-29T14:57:34;2.35;;;1.63;;
75526;SDS011;64107;49.248;7.006;2023-04-29T15:00:00;2.83;;;1.92;;
75526;SDS011;64107;49.248;7.006;2023-04-29T15:02:27;3.40;;;1.92;;
75526;SDS011;64107;49.248;7.006;2023-04-29T15:04:53;2.35;;;1.63;;
75526;SDS011;64107;49.248;7.006;2023-04-29T15:07:19;6.35;;;2.00;;
75526;SDS011;64107;49.248;7.006;2023-04-29T15:09:46;2.35;;;1.85;;
75526;SDS011;64107;49.248;7.006;2023-04-29T15:12:12;2.40;;;1.75;;
75526;SDS011;64107;49.248;7.006;2023-04-29T15:14:40;2.30;;;1.70;;